Time;durP1;ratioP1;P1;durP2;ratioP2;P2;SDS_P1;SDS_P2;PMS_P1;PMS_P2;Temp;Humidity;BMP_temperature;BMP_pressure;BME280_temperature;BME280_humidity;BME280_pressure;Samples;Min_cycle;Max_cycle;Signal;HPM_P1;HPM_P2
2023/10/15 00:00:31;;;;;;;;;;;;;;;9.10;75.52;100273.46;105130;1262;82009;-62
2023/10/15 00:03:19;;;;;;;;;;;;;;;9.00;75.75;100276.73;104984;1259;73971;-63
2023/10/15 00:05:48;;;;;;;;;;;;;;;8.92;76.06;100275.44;105046;1263;69146;-62
2023/10/15 00:08:16;;;;;;;;;;;;;;;8.82;76.05;100280.80;105081;1263;69150;-62
2023/10/15 00:10:44;;;;;;;;;;;;;;;8.75;76.21;100283.30;105016;1259;74668;-62
2023/10/15 00:13:13;;;;;;;;;;;;;;;8.66;76.27;100284.78;105084;1265;82568;-62
2023/10/15 00:15:43;;;;;;;;;;;;;;;8.58;76.39;100289.56;105087;1263;70632;-62
2023/10/15 00:18:13;;;;;;;;;;;;;;;8.51;76.69;100287.52;105014;1264;69133;-62
2023/10/15 00:20:42;;;;;;;;;;;;;;;8.45;76.43;100281.59;105064;1259;69130;-62
2023/10/15 00:23:13;;;;;;;;;;;;;;;8.41;76.62;100278.24;105033;1259;74177;-62
2023/10/15 00:25:47;;;;;;;;;;;;;;;8.39;76.73;100278.98;105055;1259;80274;-62
2023/10/15 00:28:16;;;;;;;;;;;;;;;8.35;76.96;100276.32;105034;1263;71921;-62
2023/10/15 00:30:44;;;;;;;;;;;;;;;8.33;76.99;100278.60;105051;1260;69146;-62
2023/10/15 00:33:12;;;;;;;;;;;;;;;8.32;77.04;100282.13;105034;1263;69878;-62
2023/10/15 00:35:49;;;;;;;;;;;;;;;8.31;77.20;100282.87;105080;1259;73794;-62
2023/10/15 00:38:19;;;;;;;;;;;;;;;8.29;76.92;100286.05;104865;1259;80498;-62
2023/10/15 00:40:54;;;;;;;;;;;;;;;8.29;77.30;100286.60;104885;1259;71588;-62
2023/10/15 00:43:22;;;;;;;;;;;;;;;8.29;77.18;100281.36;105015;1265;69098;-62
2023/10/15 00:45:51;;;;;;;;;;;;;;;8.30;77.31;100282.55;105056;1259;69163;-62
2023/10/15 00:48:33;;;;;;;;;;;;;;;8.30;77.24;100280.83;105063;1263;72310;-62
2023/10/15 00:51:11;;;;;;;;;;;;;;;8.29;77.26;100275.80;105073;1265;81424;-62
2023/10/15 00:53:54;;;;;;;;;;;;;;;8.28;77.41;100279.11;105022;1264;72979;-62
2023/10/15 00:56:23;;;;;;;;;;;;;;;8.28;77.44;100280.86;104877;1265;69235;-62
2023/10/15 01:01:26;;;;;;;;;;;;;;;8.24;77.48;100279.23;105081;1263;72822;-62
2023/10/15 01:03:59;;;;;;;;;;;;;;;8.23;77.42;100279.42;105100;1262;82786;-62
2023/10/15 01:09:10;;;;;;;;;;;;;;;8.21;77.61;100285.41;105045;1262;69145;-62
2023/10/15 01:11:44;;;;;;;;;;;;;;;8.19;77.55;100286.52;105095;1262;69128;-62
2023/10/15 01:14:25;;;;;;;;;;;;;;;8.16;77.56;100287.63;105080;1261;73309;-62
2023/10/15 01:16:53;;;;;;;;;;;;;;;8.12;77.45;100282.71;105086;1262;81811;-62
2023/10/15 01:19:31;;;;;;;;;;;;;;;8.09;77.51;100287.17;105083;1260;72027;-62
2023/10/15 01:22:03;;;;;;;;;;;;;;;8.05;77.90;100281.51;105119;1262;69086;-62
2023/10/15 01:24:33;;;;;;;;;;;;;;;8.03;78.19;100285.41;105073;1262;69105;-62
2023/10/15 01:29:41;;;;;;;;;;;;;;;7.99;78.15;100282.75;105112;1260;80445;-62
2023/10/15 01:32:13;;;;;;;;;;;;;;;7.97;78.18;100282.10;105056;1260;73090;-62
2023/10/15 01:34:44;;;;;;;;;;;;;;;7.96;78.03;100285.61;105075;1265;69184;-62
2023/10/15 01:37:24;;;;;;;;;;;;;;;7.95;78.37;100288.76;104981;1260;69150;-62
2023/10/15 01:39:53;;;;;;;;;;;;;;;7.95;78.33;100290.15;105000;1265;73478;-62
2023/10/15 01:42:34;;;;;;;;;;;;;;;7.94;78.27;100293.67;105179;1260;82873;-62
2023/10/15 01:45:13;;;;;;;;;;;;;;;7.92;78.38;100294.23;105053;1260;72726;-62
2023/10/15 01:50:23;;;;;;;;;;;;;;;7.91;78.24;100294.10;105023;1259;69178;-62
2023/10/15 01:53:01;;;;;;;;;;;;;;;7.90;78.16;100291.33;105092;1260;74470;-62
2023/10/15 01:55:30;;;;;;;;;;;;;;;7.91;78.41;100289.41;105091;1262;81251;-62
2023/10/15 01:58:00;;;;;;;;;;;;;;;7.90;78.13;100290.13;105085;1266;72142;-62
2023/10/15 02:03:04;;;;;;;;;;;;;;;7.87;78.14;100290.55;105053;1259;69061;-62
2023/10/15 02:05:42;;;;;;;;;;;;;;;7.86;78.54;100295.79;105038;1264;73762;-62
2023/10/15 02:08:16;;;;;;;;;;;;;;;7.86;78.41;100296.33;105093;1260;81696;-62
2023/10/15 02:10:47;;;;;;;;;;;;;;;7.85;78.38;100292.53;105047;1264;71501;-62
2023/10/15 02:13:16;;;;;;;;;;;;;;;7.84;78.47;100290.28;105085;1260;69085;-62
2023/10/15 02:15:44;;;;;;;;;;;;;;;7.85;78.29;100291.50;105085;1259;69187;-62
2023/10/15 02:18:17;;;;;;;;;;;;;;;7.85;78.36;100286.09;105091;1262;73947;-62
2023/10/15 02:23:20;;;;;;;;;;;;;;;7.85;78.25;100288.35;105037;1260;71705;-62
2023/10/15 02:25:57;;;;;;;;;;;;;;;7.85;78.37;100291.66;105023;1263;69225;-62
2023/10/15 02:28:31;;;;;;;;;;;;;;;7.85;78.05;100286.95;105108;1262;69148;-62
2023/10/15 02:33:36;;;;;;;;;;;;;;;7.85;78.16;100293.92;105038;1263;81868;-62
2023/10/15 02:36:09;;;;;;;;;;;;;;;7.85;78.05;100296.69;105035;1262;72831;-62
2023/10/15 02:38:37;;;;;;;;;;;;;;;7.84;78.05;100288.71;105017;1262;69179;-62
2023/10/15 02:41:06;;;;;;;;;;;;;;;7.84;78.36;100292.02;105112;1262;69112;-62
2023/10/15 02:43:40;;;;;;;;;;;;;;;7.82;78.01;100288.94;105110;1262;73321;-62
2023/10/15 02:46:21;;;;;;;;;;;;;;;7.82;78.24;100292.60;105060;1273;81666;-62
2023/10/15 02:48:53;;;;;;;;;;;;;;;7.82;78.19;100298.14;105037;1264;72814;-62
2023/10/15 02:51:24;;;;;;;;;;;;;;;7.83;78.32;100298.31;105010;1265;69148;-63
2023/10/15 02:53:54;;;;;;;;;;;;;;;7.82;78.18;100295.54;105058;1262;69097;-63
2023/10/15 02:56:23;;;;;;;;;;;;;;;7.81;78.21;100297.33;105066;1262;74862;-61
2023/10/15 02:58:54;;;;;;;;;;;;;;;7.81;78.21;100296.10;105105;1263;82710;-62
2023/10/15 03:01:24;;;;;;;;;;;;;;;7.80;78.20;100296.48;105027;1263;71721;-62
2023/10/15 03:03:53;;;;;;;;;;;;;;;7.79;78.31;100297.73;105053;1263;69318;-62
2023/10/15 03:06:26;;;;;;;;;;;;;;;7.79;78.16;100305.05;105112;1262;69148;-62
2023/10/15 03:08:56;;;;;;;;;;;;;;;7.78;78.21;100310.45;105118;1260;74080;-62
2023/10/15 03:11:25;;;;;;;;;;;;;;;7.77;78.22;100315.54;105075;1261;82705;-62
2023/10/15 03:13:53;;;;;;;;;;;;;;;7.76;78.02;100314.33;105052;1263;72229;-62
2023/10/15 03:16:23;;;;;;;;;;;;;;;7.76;78.27;100310.52;105057;1259;69126;-62
2023/10/15 03:18:52;;;;;;;;;;;;;;;7.76;78.28;100318.49;105069;1262;69195;-62
2023/10/15 03:21:28;;;;;;;;;;;;;;;7.75;78.15;100319.40;105119;1262;72804;-62
2023/10/15 03:23:56;;;;;;;;;;;;;;;7.72;77.93;100321.22;105065;1263;82427;-62
2023/10/15 03:26:30;;;;;;;;;;;;;;;7.70;77.91;100313.45;105065;1263;70541;-62
2023/10/15 03:28:58;;;;;;;;;;;;;;;7.68;78.08;100318.20;105034;1263;69202;-62
2023/10/15 03:31:31;;;;;;;;;;;;;;;7.66;78.29;100318.23;105094;1263;69158;-62
2023/10/15 03:36:34;;;;;;;;;;;;;;;7.62;78.18;100313.14;105078;1271;81518;-62
2023/10/15 03:39:10;;;;;;;;;;;;;;;7.60;78.15;100311.64;105071;1262;70812;-62
2023/10/15 03:41:40;;;;;;;;;;;;;;;7.58;77.99;100310.98;105072;1261;69130;-62
2023/10/15 03:44:10;;;;;;;;;;;;;;;7.56;78.19;100308.94;105154;1261;69214;-62
2023/10/15 03:46:39;;;;;;;;;;;;;;;7.54;78.14;100308.66;105116;1260;72868;-62
2023/10/15 03:49:11;;;;;;;;;;;;;;;7.50;78.25;100307.88;105047;1271;82790;-62
2023/10/15 03:51:41;;;;;;;;;;;;;;;7.49;78.32;100305.30;105108;1261;72244;-62
2023/10/15 03:54:13;;;;;;;;;;;;;;;7.48;78.12;100304.13;105093;1262;69199;-62
2023/10/15 03:56:43;;;;;;;;;;;;;;;7.45;78.23;100299.86;105046;1263;69175;-62
2023/10/15 03:59:12;;;;;;;;;;;;;;;7.41;78.31;100298.73;105102;1262;72236;-62
2023/10/15 04:01:49;;;;;;;;;;;;;;;7.38;77.96;100303.84;105041;1262;80183;-62
2023/10/15 04:04:18;;;;;;;;;;;;;;;7.35;78.19;100301.13;105021;1262;71672;-62
2023/10/15 04:06:53;;;;;;;;;;;;;;;7.33;78.29;100297.89;105101;1264;69228;-62
2023/10/15 04:09:25;;;;;;;;;;;;;;;7.32;78.30;100300.36;105068;1263;69125;-62
2023/10/15 04:11:55;;;;;;;;;;;;;;;7.30;78.25;100304.41;105126;1263;74097;-62
2023/10/15 04:14:30;;;;;;;;;;;;;;;7.27;78.34;100296.65;105064;1262;81680;-62
2023/10/15 04:16:58;;;;;;;;;;;;;;;7.25;78.37;100299.85;105026;1263;71723;-62
2023/10/15 04:19:29;;;;;;;;;;;;;;;7.23;78.42;100298.48;105117;1271;69116;-62
2023/10/15 04:22:07;;;;;;;;;;;;;;;7.21;78.52;100293.50;105061;1262;69230;-62
2023/10/15 04:24:36;;;;;;;;;;;;;;;7.18;78.31;100296.52;105087;1266;72803;-62
2023/10/15 04:27:15;;;;;;;;;;;;;;;7.15;78.24;100296.09;105044;1262;81898;-62
2023/10/15 04:29:48;;;;;;;;;;;;;;;7.14;78.38;100293.48;105052;1263;72084;-62
2023/10/15 04:35:18;;;;;;;;;;;;;;;7.13;78.58;100295.42;105066;1264;69199;-62
2023/10/15 04:37:52;;;;;;;;;;;;;;;7.13;78.53;100300.48;105056;1262;73816;-62
2023/10/15 04:40:23;;;;;;;;;;;;;;;7.11;78.61;100297.74;105089;1263;82762;-62
2023/10/15 04:42:52;;;;;;;;;;;;;;;7.08;78.78;100301.81;105118;1262;70659;-62
2023/10/15 04:45:23;;;;;;;;;;;;;;;7.04;78.62;100303.64;105047;1264;69177;-62
2023/10/15 04:48:13;;;;;;;;;;;;;;;7.02;78.82;100303.35;105062;1262;69296;-62
2023/10/15 04:50:43;;;;;;;;;;;;;;;6.98;78.61;100303.28;105077;1262;74071;-62
2023/10/15 04:53:12;;;;;;;;;;;;;;;6.93;78.86;100301.46;105109;1262;81959;-62
2023/10/15 04:55:42;;;;;;;;;;;;;;;6.90;78.81;100301.36;105081;1263;70653;-62
2023/10/15 04:58:11;;;;;;;;;;;;;;;6.88;79.05;100303.16;105050;1264;69749;-62
2023/10/15 05:00:39;;;;;;;;;;;;;;;6.87;79.03;100305.27;105043;1263;69236;-62
2023/10/15 05:03:09;;;;;;;;;;;;;;;6.86;79.42;100300.42;105087;1261;74686;-62
2023/10/15 05:05:38;;;;;;;;;;;;;;;6.86;79.21;100303.37;105115;1263;81775;-62
2023/10/15 05:08:10;;;;;;;;;;;;;;;6.86;79.50;100308.92;105031;1260;70392;-62
2023/10/15 05:10:50;;;;;;;;;;;;;;;6.88;79.81;100308.89;105051;1260;69135;-62
2023/10/15 05:13:19;;;;;;;;;;;;;;;6.90;79.68;100316.30;105083;1260;69092;-62
2023/10/15 05:15:48;;;;;;;;;;;;;;;6.92;79.63;100316.27;105125;1263;74434;-62
2023/10/15 05:18:18;;;;;;;;;;;;;;;6.91;79.64;100317.51;105120;1260;81483;-62
2023/10/15 05:20:48;;;;;;;;;;;;;;;6.91;79.62;100316.98;105062;1263;72014;-62
2023/10/15 05:23:16;;;;;;;;;;;;;;;6.91;79.78;100322.17;105137;1263;69225;-62
2023/10/15 05:25:44;;;;;;;;;;;;;;;6.91;79.69;100326.34;105105;1263;69164;-62
2023/10/15 05:28:14;;;;;;;;;;;;;;;6.95;79.90;100328.52;105066;1261;74846;-62
2023/10/15 05:30:43;;;;;;;;;;;;;;;6.97;79.86;100331.25;105080;1263;80974;-62
2023/10/15 05:33:11;;;;;;;;;;;;;;;6.99;79.78;100341.80;105069;1261;70939;-62
2023/10/15 05:35:43;;;;;;;;;;;;;;;7.01;79.81;100345.24;105126;1260;69198;-62
2023/10/15 05:38:11;;;;;;;;;;;;;;;7.02;79.77;100350.78;105078;1261;69196;-62
2023/10/15 05:40:39;;;;;;;;;;;;;;;7.04;79.92;100350.20;105118;1261;74315;-62
2023/10/15 05:43:07;;;;;;;;;;;;;;;7.08;79.95;100350.13;105094;1264;83692;-62
2023/10/15 05:45:35;;;;;;;;;;;;;;;7.09;79.65;100355.13;105018;1260;72746;-62
2023/10/15 05:48:03;;;;;;;;;;;;;;;7.09;79.80;100350.92;104994;1264;69212;-62
2023/10/15 05:50:32;;;;;;;;;;;;;;;7.09;79.62;100357.55;105054;1263;69182;-64
2023/10/15 05:53:00;;;;;;;;;;;;;;;7.10;79.74;100356.15;105218;1261;73701;-62
2023/10/15 05:55:29;;;;;;;;;;;;;;;7.11;79.74;100355.95;105163;1263;82729;-62
2023/10/15 05:57:58;;;;;;;;;;;;;;;7.16;79.54;100355.82;105125;1261;71892;-62
2023/10/15 06:00:26;;;;;;;;;;;;;;;7.22;79.68;100355.17;105092;1260;69147;-63
2023/10/15 06:02:56;;;;;;;;;;;;;;;7.25;79.59;100359.96;105184;1271;69215;-61
2023/10/15 06:05:25;;;;;;;;;;;;;;;7.29;79.69;100349.98;105213;1263;75742;-64
2023/10/15 06:07:54;;;;;;;;;;;;;;;7.33;79.60;100350.73;105111;1263;80604;-63
2023/10/15 06:10:23;;;;;;;;;;;;;;;7.37;79.70;100359.33;105155;1264;71831;-63
2023/10/15 06:12:51;;;;;;;;;;;;;;;7.38;79.60;100355.13;105243;1264;69161;-62
2023/10/15 06:15:19;;;;;;;;;;;;;;;7.40;79.63;100355.60;105121;1271;69128;-61
2023/10/15 06:17:51;;;;;;;;;;;;;;;7.42;79.65;100363.72;105281;1260;73893;-62
2023/10/15 06:20:20;;;;;;;;;;;;;;;7.42;79.67;100368.06;105125;1262;83955;-62
2023/10/15 06:22:49;;;;;;;;;;;;;;;7.42;79.75;100370.48;104997;1260;175955;-62
2023/10/15 06:25:17;;;;;;;;;;;;;;;7.43;79.35;100373.95;105187;1263;68950;-62
2023/10/15 06:27:46;;;;;;;;;;;;;;;7.44;79.67;100370.27;105366;1263;69189;-62
2023/10/15 06:30:15;;;;;;;;;;;;;;;7.45;79.34;100376.52;105355;1263;72324;-62
2023/10/15 06:32:50;;;;;;;;;;;;;;;7.45;79.41;100375.64;105096;1262;81587;-62
2023/10/15 06:35:20;;;;;;;;;;;;;;;7.45;79.28;100373.20;105217;1261;73771;-62
2023/10/15 06:37:49;;;;;;;;;;;;;;;7.46;79.13;100373.19;105173;1262;69142;-61
2023/10/15 06:40:17;;;;;;;;;;;;;;;7.47;79.26;100374.04;105244;1271;69756;-62
2023/10/15 06:42:51;;;;;;;;;;;;;;;7.49;79.28;100374.52;105236;1263;74076;-62
2023/10/15 06:45:20;;;;;;;;;;;;;;;7.51;79.31;100374.61;105287;1262;82585;-62
2023/10/15 06:47:51;;;;;;;;;;;;;;;7.55;79.17;100380.09;105101;1262;72811;-62
2023/10/15 06:50:22;;;;;;;;;;;;;;;7.57;79.17;100383.33;105164;1263;69216;-61
2023/10/15 06:52:53;;;;;;;;;;;;;;;7.61;79.01;100383.77;105269;1261;69148;-62
2023/10/15 06:55:22;;;;;;;;;;;;;;;7.64;78.98;100386.48;105303;1263;72909;-62
2023/10/15 06:57:50;;;;;;;;;;;;;;;7.66;78.86;100386.96;105132;1263;81615;-63
2023/10/15 07:00:22;;;;;;;;;;;;;;;7.69;78.95;100389.66;105112;1260;71792;-63
2023/10/15 07:02:51;;;;;;;;;;;;;;;7.72;78.96;100397.40;105265;1264;69166;-63
2023/10/15 07:05:20;;;;;;;;;;;;;;;7.75;79.01;100394.89;105310;1258;69138;-63
2023/10/15 07:07:48;;;;;;;;;;;;;;;7.78;78.99;100398.65;105185;1261;73719;-63
2023/10/15 07:10:17;;;;;;;;;;;;;;;7.81;78.98;100391.08;105099;1262;81331;-63
2023/10/15 07:12:45;;;;;;;;;;;;;;;7.85;78.88;100402.30;105165;1260;71939;-63
2023/10/15 07:15:14;;;;;;;;;;;;;;;7.87;78.73;100397.36;105248;1261;69288;-64
2023/10/15 07:17:43;;;;;;;;;;;;;;;7.90;78.73;100400.60;105396;1263;69276;-63
2023/10/15 07:20:21;;;;;;;;;;;;;;;7.93;78.45;100406.09;105194;1261;73796;-63
2023/10/15 07:22:50;;;;;;;;;;;;;;;7.95;78.34;100407.42;105438;1263;82024;-63
2023/10/15 07:25:18;;;;;;;;;;;;;;;7.98;78.34;100409.77;105443;1263;70414;-56
2023/10/15 07:27:48;;;;;;;;;;;;;;;8.04;78.41;100411.02;105215;1263;69711;-56
2023/10/15 07:30:19;;;;;;;;;;;;;;;8.08;78.31;100408.99;105227;1261;69128;-57
2023/10/15 07:32:53;;;;;;;;;;;;;;;8.13;78.36;100404.00;105090;1260;73657;-56
2023/10/15 07:35:21;;;;;;;;;;;;;;;8.15;78.08;100410.90;105237;1263;81991;-56
2023/10/15 07:37:50;;;;;;;;;;;;;;;8.18;78.05;100414.98;105106;1261;71465;-58
2023/10/15 07:40:21;;;;;;;;;;;;;;;8.23;78.07;100416.77;105293;1266;69248;-57
2023/10/15 07:42:54;;;;;;;;;;;;;;;8.27;77.81;100416.14;105235;1262;69404;-56
2023/10/15 07:45:28;;;;;;;;;;;;;;;8.29;77.86;100409.83;105166;1263;73740;-56
2023/10/15 07:47:59;;;;;;;;;;;;;;;8.34;77.85;100409.16;105168;1264;83359;-55
2023/10/15 07:50:29;;;;;;;;;;;;;;;8.39;77.86;100408.34;105237;1268;73137;-55
2023/10/15 07:52:57;;;;;;;;;;;;;;;8.45;77.91;100408.72;105252;1264;69099;-54
2023/10/15 07:55:26;;;;;;;;;;;;;;;8.50;77.68;100407.17;105278;1261;69118;-56
2023/10/15 07:57:55;;;;;;;;;;;;;;;8.56;77.68;100407.54;105104;1260;73518;-54
2023/10/15 08:00:23;;;;;;;;;;;;;;;8.61;77.36;100413.48;105160;1261;82563;-58
2023/10/15 08:02:52;;;;;;;;;;;;;;;8.66;77.30;100414.73;105211;1266;70717;-59
2023/10/15 08:05:21;;;;;;;;;;;;;;;8.71;77.11;100415.10;105136;1261;69119;-58
2023/10/15 08:07:50;;;;;;;;;;;;;;;8.76;76.82;100418.27;105048;1262;69163;-59
2023/10/15 08:10:20;;;;;;;;;;;;;;;8.82;76.75;100416.89;105157;1260;73864;-59
2023/10/15 08:12:49;;;;;;;;;;;;;;;8.90;76.75;100412.80;105093;1262;82836;-59
2023/10/15 08:15:18;;;;;;;;;;;;;;;8.98;76.50;100420.58;105062;1260;71674;-59
2023/10/15 08:17:49;;;;;;;;;;;;;;;9.04;76.32;100416.41;105088;1259;69174;-59
2023/10/15 08:20:17;;;;;;;;;;;;;;;9.11;76.14;100412.86;105033;1259;69206;-59
2023/10/15 08:22:45;;;;;;;;;;;;;;;9.23;76.38;100419.13;105113;1259;74240;-59
2023/10/15 08:25:14;;;;;;;;;;;;;;;9.31;75.94;100416.25;105035;1260;81636;-59
2023/10/15 08:27:44;;;;;;;;;;;;;;;9.33;75.27;100417.58;105019;1261;71946;-59
2023/10/15 08:30:13;;;;;;;;;;;;;;;9.38;75.11;100417.44;105054;1262;69235;-59
2023/10/15 08:32:42;;;;;;;;;;;;;;;9.47;75.21;100416.98;105111;1262;69212;-59
2023/10/15 08:35:13;;;;;;;;;;;;;;;9.57;75.10;100428.52;105121;1262;75073;-59
2023/10/15 08:37:42;;;;;;;;;;;;;;;9.66;74.81;100417.93;105069;1262;81978;-59
2023/10/15 08:40:17;;;;;;;;;;;;;;;9.76;74.70;100418.11;105123;1261;71947;-60
2023/10/15 08:42:46;;;;;;;;;;;;;;;9.87;74.66;100420.52;105065;1261;69129;-59
2023/10/15 08:45:14;;;;;;;;;;;;;;;9.99;74.45;100419.43;105036;1262;69616;-59
2023/10/15 08:47:42;;;;;;;;;;;;;;;10.08;74.14;100421.74;105056;1259;73916;-59
2023/10/15 08:50:10;;;;;;;;;;;;;;;10.13;73.62;100420.16;105056;1262;81810;-59
2023/10/15 08:52:38;;;;;;;;;;;;;;;10.15;72.98;100416.27;105029;1260;71897;-59
2023/10/15 08:55:09;;;;;;;;;;;;;;;10.13;72.43;100421.23;105092;1262;69154;-59
2023/10/15 08:57:38;;;;;;;;;;;;;;;10.11;72.16;100418.48;105077;1262;69279;-59
2023/10/15 09:00:25;;;;;;;;;;;;;;;10.17;72.22;100417.44;105160;1262;72794;-59
2023/10/15 09:03:00;;;;;;;;;;;;;;;10.29;72.38;100413.50;105010;1262;82814;-59
2023/10/15 09:05:40;;;;;;;;;;;;;;;10.45;72.56;100414.71;105066;1262;71692;-59
2023/10/15 09:08:09;;;;;;;;;;;;;;;10.55;72.02;100418.73;105099;1262;69182;-59
2023/10/15 09:10:41;;;;;;;;;;;;;;;10.64;71.84;100412.95;105067;1259;69198;-59
2023/10/15 09:13:18;;;;;;;;;;;;;;;10.72;71.42;100416.17;105123;1262;73748;-59
2023/10/15 09:15:48;;;;;;;;;;;;;;;10.79;70.99;100413.95;105081;1261;81722;-59
2023/10/15 09:18:16;;;;;;;;;;;;;;;10.83;70.51;100414.86;105101;1260;72999;-59
2023/10/15 09:20:46;;;;;;;;;;;;;;;10.77;69.97;100423.48;105087;1260;69176;-59
2023/10/15 09:23:15;;;;;;;;;;;;;;;10.70;69.51;100411.02;105106;1260;69268;-59
2023/10/15 09:25:43;;;;;;;;;;;;;;;10.80;69.61;100415.87;105129;1260;73704;-59
2023/10/15 09:28:11;;;;;;;;;;;;;;;10.99;69.17;100421.08;105057;1258;81825;-59
2023/10/15 09:30:40;;;;;;;;;;;;;;;11.19;69.23;100412.77;105013;1260;73216;-59
2023/10/15 09:33:12;;;;;;;;;;;;;;;11.39;68.89;100414.61;105044;1258;69050;-59
2023/10/15 09:35:41;;;;;;;;;;;;;;;11.60;68.63;100412.37;105068;1260;69247;-59
2023/10/15 09:38:17;;;;;;;;;;;;;;;11.77;68.05;100412.52;105124;1262;73010;-59
2023/10/15 09:40:45;;;;;;;;;;;;;;;11.89;67.70;100411.35;105054;1263;81528;-59
2023/10/15 09:43:14;;;;;;;;;;;;;;;11.97;67.23;100413.65;105059;1261;71877;-59
2023/10/15 09:45:42;;;;;;;;;;;;;;;12.10;66.77;100410.48;105077;1262;69251;-59
2023/10/15 09:48:11;;;;;;;;;;;;;;;12.28;66.49;100411.95;105126;1262;69145;-59
2023/10/15 09:50:41;;;;;;;;;;;;;;;12.42;65.94;100411.17;105142;1259;74161;-59
2023/10/15 09:53:10;;;;;;;;;;;;;;;12.52;65.17;100410.02;105112;1262;82525;-59
2023/10/15 09:55:40;;;;;;;;;;;;;;;12.54;64.43;100412.05;105081;1257;70367;-60
2023/10/15 09:58:12;;;;;;;;;;;;;;;12.56;63.21;100415.48;105070;1262;69138;-60
2023/10/15 10:03:47;;;;;;;;;;;;;;;12.71;63.60;100416.67;105144;1261;74964;-60
2023/10/15 10:06:36;;;;;;;;;;;;;;;12.89;63.77;100417.44;105100;1262;81489;-60
2023/10/15 10:09:24;;;;;;;;;;;;;;;12.94;62.77;100411.07;105058;1260;73192;-59
2023/10/15 10:12:13;;;;;;;;;;;;;;;13.00;62.80;100416.05;105045;1262;69158;-60
2023/10/15 10:14:56;;;;;;;;;;;;;;;13.02;62.33;100411.57;105064;1262;69148;-60
2023/10/15 10:17:25;;;;;;;;;;;;;;;13.14;61.72;100418.05;105003;1263;75048;-60
2023/10/15 10:19:54;;;;;;;;;;;;;;;13.03;61.36;100406.27;104999;1260;81902;-60
2023/10/15 10:22:28;;;;;;;;;;;;;;;13.08;61.64;100409.91;104976;1259;73045;-60
2023/10/15 10:24:59;;;;;;;;;;;;;;;13.27;61.21;100409.73;105039;1260;69192;-60
2023/10/15 10:27:27;;;;;;;;;;;;;;;13.34;61.24;100402.36;105105;1262;69125;-60
2023/10/15 10:30:15;;;;;;;;;;;;;;;13.47;61.40;100399.98;105074;1262;72649;-60
2023/10/15 10:32:44;;;;;;;;;;;;;;;13.26;61.28;100400.47;105094;1262;81497;-60
2023/10/15 10:35:14;;;;;;;;;;;;;;;13.09;60.94;100398.79;105065;1258;72246;-60
2023/10/15 10:38:10;;;;;;;;;;;;;;;12.87;60.67;100397.36;105118;1259;69096;-60
2023/10/15 10:40:47;;;;;;;;;;;;;;;12.83;61.11;100397.91;105122;1262;69311;-60
2023/10/15 10:43:26;;;;;;;;;;;;;;;12.87;61.13;100389.34;105107;1259;73647;-59
2023/10/15 10:45:59;;;;;;;;;;;;;;;13.09;61.49;100381.80;105087;1260;81777;-60
2023/10/15 10:48:33;;;;;;;;;;;;;;;13.08;61.14;100380.94;105097;1260;70922;-59
2023/10/15 10:51:21;;;;;;;;;;;;;;;12.94;61.15;100381.42;105106;1259;69183;-60
2023/10/15 10:53:55;;;;;;;;;;;;;;;12.98;61.38;100379.52;105117;1262;69095;-59
2023/10/15 10:56:25;;;;;;;;;;;;;;;12.92;61.00;100373.30;105098;1260;74823;-59
2023/10/15 10:58:55;;;;;;;;;;;;;;;12.77;61.02;100378.21;105099;1259;81410;-59
2023/10/15 11:01:23;;;;;;;;;;;;;;;12.72;61.52;100386.86;105064;1259;70330;-59
2023/10/15 11:03:54;;;;;;;;;;;;;;;12.67;62.11;100380.41;105109;1262;69139;-61
2023/10/15 11:06:23;;;;;;;;;;;;;;;12.82;62.68;100379.02;105069;1260;69202;-60
2023/10/15 11:08:52;;;;;;;;;;;;;;;13.23;63.42;100377.11;105146;1260;73775;-60
2023/10/15 11:11:20;;;;;;;;;;;;;;;13.72;63.73;100373.30;105033;1262;81437;-59
2023/10/15 11:13:48;;;;;;;;;;;;;;;13.67;62.35;100371.98;105117;1262;71547;-59
2023/10/15 11:16:16;;;;;;;;;;;;;;;13.69;61.87;100372.22;105050;1259;69093;-59
2023/10/15 11:18:45;;;;;;;;;;;;;;;13.47;61.01;100375.77;105041;1261;69131;-60
2023/10/15 11:21:13;;;;;;;;;;;;;;;13.14;60.68;100380.83;105092;1260;74146;-59
2023/10/15 11:23:41;;;;;;;;;;;;;;;12.94;60.90;100382.64;105060;1262;81751;-59
2023/10/15 11:26:09;;;;;;;;;;;;;;;12.83;60.86;100387.08;105106;1260;72816;-59
2023/10/15 11:28:38;;;;;;;;;;;;;;;12.66;60.23;100384.13;105066;1260;69049;-59
2023/10/15 11:31:06;;;;;;;;;;;;;;;12.40;60.03;100381.12;105086;1259;69220;-59
2023/10/15 11:33:34;;;;;;;;;;;;;;;12.19;60.08;100378.73;105083;1259;73893;-59
2023/10/15 11:36:06;;;;;;;;;;;;;;;12.02;60.15;100376.30;105087;1262;81972;-57
2023/10/15 11:38:34;;;;;;;;;;;;;;;11.99;60.46;100374.16;105083;1262;73088;-58
2023/10/15 11:41:04;;;;;;;;;;;;;;;11.97;60.50;100375.98;105096;1259;69211;-59
2023/10/15 11:43:35;;;;;;;;;;;;;;;12.11;60.89;100376.63;105144;1262;69195;-59
2023/10/15 11:46:07;;;;;;;;;;;;;;;12.20;60.91;100380.07;105105;1262;72450;-58
2023/10/15 11:48:37;;;;;;;;;;;;;;;12.35;61.13;100379.58;105105;1259;81388;-58
2023/10/15 11:51:08;;;;;;;;;;;;;;;12.55;61.13;100382.92;105128;1261;71841;-58
2023/10/15 11:53:37;;;;;;;;;;;;;;;12.49;60.48;100384.05;105087;1262;69202;-58
2023/10/15 11:56:12;;;;;;;;;;;;;;;12.33;60.30;100388.27;105061;1258;69199;-58
2023/10/15 11:58:45;;;;;;;;;;;;;;;12.02;60.00;100387.67;105088;1262;75099;-59
2023/10/15 12:01:15;;;;;;;;;;;;;;;11.81;60.34;100393.98;105118;1262;81631;-57
2023/10/15 12:03:43;;;;;;;;;;;;;;;11.60;60.09;100393.64;105149;1260;70827;-57
2023/10/15 12:06:12;;;;;;;;;;;;;;;11.41;60.69;100386.71;105091;1258;69078;-59
2023/10/15 12:08:40;;;;;;;;;;;;;;;11.42;61.13;100386.67;105122;1262;69305;-59
2023/10/15 12:11:08;;;;;;;;;;;;;;;11.58;61.11;100389.89;105080;1260;72540;-59
2023/10/15 12:13:39;;;;;;;;;;;;;;;11.98;61.51;100381.73;105094;1262;82800;-59
2023/10/15 12:16:07;;;;;;;;;;;;;;;12.39;61.27;100382.76;105138;1259;73007;-59
2023/10/15 12:18:36;;;;;;;;;;;;;;;12.62;61.07;100381.36;105159;1261;69213;-59
2023/10/15 12:21:04;;;;;;;;;;;;;;;12.72;60.42;100378.43;105097;1262;69183;-58
2023/10/15 12:23:32;;;;;;;;;;;;;;;13.03;60.59;100379.44;105107;1262;74772;-58
2023/10/15 12:26:00;;;;;;;;;;;;;;;13.40;60.53;100374.02;105153;1260;81516;-58
2023/10/15 12:28:29;;;;;;;;;;;;;;;13.59;59.61;100376.92;105090;1260;72731;-58
2023/10/15 12:30:58;;;;;;;;;;;;;;;13.77;59.58;100368.31;105090;1258;69121;-58
2023/10/15 12:33:26;;;;;;;;;;;;;;;14.03;59.66;100365.91;105163;1260;69190;-58
2023/10/15 12:35:54;;;;;;;;;;;;;;;14.40;59.92;100368.18;105076;1259;73545;-59
2023/10/15 12:38:26;;;;;;;;;;;;;;;14.74;59.26;100374.48;105089;1262;83098;-58
2023/10/15 12:40:55;;;;;;;;;;;;;;;14.79;58.50;100372.45;105100;1259;71794;-58
2023/10/15 12:43:23;;;;;;;;;;;;;;;14.87;58.34;100374.28;105140;1262;69184;-58
2023/10/15 12:45:52;;;;;;;;;;;;;;;14.98;58.05;100370.69;105087;1262;69202;-58
2023/10/15 12:48:20;;;;;;;;;;;;;;;14.92;57.60;100375.05;105133;1259;74992;-58
2023/10/15 12:50:50;;;;;;;;;;;;;;;14.53;57.66;100384.02;105116;1262;82798;-59
2023/10/15 12:53:19;;;;;;;;;;;;;;;13.98;59.04;100373.91;105093;1259;73018;-60
2023/10/15 12:55:47;;;;;;;;;;;;;;;13.55;59.65;100371.31;105094;1262;69148;-60
2023/10/15 12:58:15;;;;;;;;;;;;;;;13.07;60.15;100373.30;105080;1260;69176;-59
2023/10/15 13:00:44;;;;;;;;;;;;;;;12.60;60.35;100376.70;105092;1259;73958;-60
2023/10/15 13:03:12;;;;;;;;;;;;;;;12.17;61.05;100373.58;105087;1262;82777;-60
2023/10/15 13:05:41;;;;;;;;;;;;;;;11.78;61.62;100379.39;105127;1260;72349;-59
2023/10/15 13:08:09;;;;;;;;;;;;;;;11.41;62.22;100380.07;105063;1260;69125;-59
2023/10/15 13:10:38;;;;;;;;;;;;;;;11.19;63.21;100380.44;105057;1259;69508;-58
2023/10/15 13:13:06;;;;;;;;;;;;;;;11.35;63.57;100379.43;105056;1259;75609;-58
2023/10/15 13:15:37;;;;;;;;;;;;;;;11.71;64.52;100374.30;105115;1264;82795;-59
2023/10/15 13:18:05;;;;;;;;;;;;;;;12.15;65.20;100368.05;105039;1259;71632;-58